Time;durP1;ratioP1;P1;durP2;ratioP2;P2;SDS_P1;SDS_P2;PMS_P1;PMS_P2;Temp;Humidity;BMP_temperature;BMP_pressure;BME280_temperature;BME280_humidity;BME280_pressure;Samples;Min_cycle;Max_cycle;Signal;HPM_P1;HPM_P2
2022/10/17 00:01:19;;;;;;;;;;;;;;;;;;6100198;23;19920;-89
2022/10/17 00:03:46;;;;;;;;;;;;;;;;;;6104115;23;19921;-89
2022/10/17 00:06:30;;;;;;;;;;;;;;;;;;6096662;23;19928;-89
2022/10/17 00:08:56;;;;;;;;;;;;;;;;;;6071980;23;19921;-89
2022/10/17 00:11:22;;;;;;;;;;;;;;;;;;6076866;23;19928;-89
2022/10/17 00:13:48;;;;;;;;;;;;;;;;;;6074621;23;19925;-90
2022/10/17 00:16:28;;;;;;;;;;;;;;;;;;6046127;23;19925;-90
2022/10/17 00:19:03;;;;;;;;;;;;;;;;;;6084674;23;19959;-91
2022/10/17 00:21:31;;;;;;;;;;;;;;;;;;6129192;23;20395;-90
2022/10/17 00:23:58;;;;;;;;;;;;;;;;;;6164246;23;20047;-90
2022/10/17 00:26:37;;;;;;;;;;;;;;;;;;6197105;23;20001;-90
2022/10/17 00:29:04;;;;;;;;;;;;;;;;;;6192055;23;19923;-90
2022/10/17 00:31:31;;;;;;;;;;;;;;;;;;6171471;23;19920;-90
2022/10/17 00:33:57;;;;;;;;;;;;;;;;;;6167561;23;19920;-90
2022/10/17 00:36:28;;;;;;;;;;;;;;;;;;6150125;22;19951;-89
2022/10/17 00:39:16;;;;;;;;;;;;;;;;;;6318303;22;20338;-89
2022/10/17 00:41:43;;;;;;;;;;;;;;;;;;6291621;22;19994;-89
2022/10/17 00:44:10;;;;;;;;;;;;;;;;;;6262611;22;19919;-89
2022/10/17 00:46:38;;;;;;;;;;;;;;;;;;6268285;22;19922;-89
2022/10/17 00:49:05;;;;;;;;;;;;;;;;;;6263514;22;19919;-89
2022/10/17 00:51:31;;;;;;;;;;;;;;;;;;6267547;22;19926;-89
2022/10/17 00:53:57;;;;;;;;;;;;;;;;;;6290848;22;19918;-90
2022/10/17 00:56:25;;;;;;;;;;;;;;;;;;6294904;22;19923;-89
2022/10/17 00:59:05;;;;;;;;;;;;;;;;;;6295885;22;19946;-90
2022/10/17 01:01:33;;;;;;;;;;;;;;;;;;6291625;22;19944;-89
2022/10/17 01:03:59;;;;;;;;;;;;;;;;;;6261018;22;20015;-89
2022/10/17 01:06:25;;;;;;;;;;;;;;;;;;6266746;22;19925;-89
2022/10/17 01:09:01;;;;;;;;;;;;;;;;;;6289717;22;19919;-90
2022/10/17 01:11:33;;;;;;;;;;;;;;;;;;6289870;22;19919;-90
2022/10/17 01:14:01;;;;;;;;;;;;;;;;;;6262308;22;19993;-90
2022/10/17 01:16:28;;;;;;;;;;;;;;;;;;6270608;22;20010;-89
2022/10/17 01:18:54;;;;;;;;;;;;;;;;;;6265729;22;19918;-90
2022/10/17 01:21:21;;;;;;;;;;;;;;;;;;6290238;22;20397;-89
2022/10/17 01:23:57;;;;;;;;;;;;;;;;;;6317746;22;20769;-90
2022/10/17 01:26:27;;;;;;;;;;;;;;;;;;6266531;22;20273;-90
2022/10/17 01:28:53;;;;;;;;;;;;;;;;;;6266821;22;19914;-90
2022/10/17 01:31:33;;;;;;;;;;;;;;;;;;6289913;22;19946;-90
2022/10/17 01:33:59;;;;;;;;;;;;;;;;;;6288755;22;20633;-90
2022/10/17 01:36:28;;;;;;;;;;;;;;;;;;6266636;22;19922;-90
2022/10/17 01:38:59;;;;;;;;;;;;;;;;;;6288767;22;20238;-89
2022/10/17 01:41:26;;;;;;;;;;;;;;;;;;6264108;22;19967;-90
2022/10/17 01:43:57;;;;;;;;;;;;;;;;;;6288859;22;19918;-89
2022/10/17 01:46:24;;;;;;;;;;;;;;;;;;6258516;22;20383;-88
2022/10/17 01:48:51;;;;;;;;;;;;;;;;;;6259848;22;19921;-89
2022/10/17 01:51:19;;;;;;;;;;;;;;;;;;6286250;22;20232;-89
2022/10/17 01:53:46;;;;;;;;;;;;;;;;;;6265260;22;19925;-89
2022/10/17 01:56:12;;;;;;;;;;;;;;;;;;6263511;22;19923;-89
2022/10/17 01:58:44;;;;;;;;;;;;;;;;;;6291402;22;19919;-89
2022/10/17 02:01:10;;;;;;;;;;;;;;;;;;6261538;22;19922;-89
2022/10/17 02:03:44;;;;;;;;;;;;;;;;;;6267610;22;19926;-89
2022/10/17 02:06:11;;;;;;;;;;;;;;;;;;6288598;22;19918;-89
2022/10/17 02:08:41;;;;;;;;;;;;;;;;;;6291446;22;19984;-90
2022/10/17 02:11:07;;;;;;;;;;;;;;;;;;6290690;22;19995;-89
2022/10/17 02:13:47;;;;;;;;;;;;;;;;;;6267463;22;19925;-89
2022/10/17 02:16:14;;;;;;;;;;;;;;;;;;6287777;22;19939;-89
2022/10/17 02:18:47;;;;;;;;;;;;;;;;;;6319506;22;19914;-89
2022/10/17 02:21:21;;;;;;;;;;;;;;;;;;6318178;22;19922;-88
2022/10/17 02:23:49;;;;;;;;;;;;;;;;;;6264749;22;19927;-90
2022/10/17 02:26:16;;;;;;;;;;;;;;;;;;6260138;22;19922;-89
2022/10/17 02:28:43;;;;;;;;;;;;;;;;;;6262234;22;19923;-90
2022/10/17 02:31:11;;;;;;;;;;;;;;;;;;6257778;22;19990;-89
2022/10/17 02:33:38;;;;;;;;;;;;;;;;;;6260053;22;19976;-89
2022/10/17 02:36:05;;;;;;;;;;;;;;;;;;6285282;22;19936;-89
2022/10/17 02:38:31;;;;;;;;;;;;;;;;;;6260606;22;19918;-90
2022/10/17 02:40:59;;;;;;;;;;;;;;;;;;6282996;22;19983;-90
2022/10/17 02:43:31;;;;;;;;;;;;;;;;;;6260065;22;19919;-89
2022/10/17 02:46:01;;;;;;;;;;;;;;;;;;6283995;22;19929;-89
2022/10/17 02:48:29;;;;;;;;;;;;;;;;;;6260122;22;19963;-90
2022/10/17 02:50:56;;;;;;;;;;;;;;;;;;6257742;22;19926;-90
2022/10/17 02:53:33;;;;;;;;;;;;;;;;;;6234910;22;19925;-90
2022/10/17 02:56:15;;;;;;;;;;;;;;;;;;6284047;22;20381;-89
2022/10/17 02:58:46;;;;;;;;;;;;;;;;;;6260045;22;19976;-89
2022/10/17 03:01:13;;;;;;;;;;;;;;;;;;6281631;22;19919;-89
2022/10/17 03:03:39;;;;;;;;;;;;;;;;;;6261620;22;20480;-89
2022/10/17 03:06:07;;;;;;;;;;;;;;;;;;6283531;22;20390;-89
2022/10/17 03:08:34;;;;;;;;;;;;;;;;;;6225280;22;20225;-89
2022/10/17 03:11:14;;;;;;;;;;;;;;;;;;6201793;22;20026;-89
2022/10/17 03:13:41;;;;;;;;;;;;;;;;;;6227820;22;19981;-89
2022/10/17 03:16:08;;;;;;;;;;;;;;;;;;6225100;22;19998;-89
2022/10/17 03:18:49;;;;;;;;;;;;;;;;;;6226274;23;20365;-89
2022/10/17 03:21:17;;;;;;;;;;;;;;;;;;6175525;23;21061;-90
2022/10/17 03:23:44;;;;;;;;;;;;;;;;;;6178246;23;19923;-89
2022/10/17 03:26:11;;;;;;;;;;;;;;;;;;6175368;23;20367;-89
2022/10/17 03:28:38;;;;;;;;;;;;;;;;;;6178075;23;19919;-89
2022/10/17 03:31:04;;;;;;;;;;;;;;;;;;6226109;23;19990;-90
2022/10/17 03:33:33;;;;;;;;;;;;;;;;;;6204100;23;19926;-89
2022/10/17 03:36:00;;;;;;;;;;;;;;;;;;6175785;23;20360;-90
2022/10/17 03:38:27;;;;;;;;;;;;;;;;;;6178875;23;19958;-90
2022/10/17 03:41:00;;;;;;;;;;;;;;;;;;6206059;23;19919;-89
2022/10/17 03:43:35;;;;;;;;;;;;;;;;;;6230324;23;20018;-89
2022/10/17 03:46:03;;;;;;;;;;;;;;;;;;6200698;23;19919;-89
2022/10/17 03:48:44;;;;;;;;;;;;;;;;;;6149410;23;19916;-90
2022/10/17 03:51:10;;;;;;;;;;;;;;;;;;6168628;23;20349;-89
2022/10/17 03:53:37;;;;;;;;;;;;;;;;;;6169463;23;19923;-89
2022/10/17 03:56:07;;;;;;;;;;;;;;;;;;6187855;23;19930;-90
2022/10/17 03:58:41;;;;;;;;;;;;;;;;;;6200734;23;19982;-90
2022/10/17 04:01:14;;;;;;;;;;;;;;;;;;6219476;23;19969;-90
2022/10/17 04:03:57;;;;;;;;;;;;;;;;;;6201832;23;19915;-90
2022/10/17 04:06:24;;;;;;;;;;;;;;;;;;6174774;23;19986;-89
2022/10/17 04:08:50;;;;;;;;;;;;;;;;;;6174098;23;20478;-89
2022/10/17 04:11:16;;;;;;;;;;;;;;;;;;6171190;23;20269;-90
2022/10/17 04:13:43;;;;;;;;;;;;;;;;;;6172574;23;19920;-90
2022/10/17 04:16:13;;;;;;;;;;;;;;;;;;6171122;23;20326;-89
2022/10/17 04:18:39;;;;;;;;;;;;;;;;;;6173050;23;19919;-89
2022/10/17 04:21:09;;;;;;;;;;;;;;;;;;6170776;23;19954;-89
2022/10/17 04:23:40;;;;;;;;;;;;;;;;;;6188154;22;19923;-90
2022/10/17 04:26:06;;;;;;;;;;;;;;;;;;6218440;22;20166;-89
2022/10/17 04:28:36;;;;;;;;;;;;;;;;;;6261861;22;19915;-90
2022/10/17 04:31:04;;;;;;;;;;;;;;;;;;6259260;22;19924;-89
2022/10/17 04:33:34;;;;;;;;;;;;;;;;;;6237372;22;20181;-89
2022/10/17 04:36:01;;;;;;;;;;;;;;;;;;6233650;22;19969;-89
2022/10/17 04:38:27;;;;;;;;;;;;;;;;;;6236785;22;20666;-90
2022/10/17 04:41:01;;;;;;;;;;;;;;;;;;6286743;22;20243;-89
2022/10/17 04:43:28;;;;;;;;;;;;;;;;;;6237394;22;20328;-89
2022/10/17 04:45:54;;;;;;;;;;;;;;;;;;6289047;22;19922;-90
2022/10/17 04:48:21;;;;;;;;;;;;;;;;;;6234023;22;19922;-89
2022/10/17 04:50:48;;;;;;;;;;;;;;;;;;6237086;22;20012;-90
2022/10/17 04:53:16;;;;;;;;;;;;;;;;;;6261847;22;20921;-89
2022/10/17 04:55:43;;;;;;;;;;;;;;;;;;6264658;22;20252;-89
2022/10/17 04:58:09;;;;;;;;;;;;;;;;;;6258636;22;20089;-90
2022/10/17 05:00:37;;;;;;;;;;;;;;;;;;6236324;22;20636;-89
2022/10/17 05:03:02;;;;;;;;;;;;;;;;;;6263401;22;19915;-90
2022/10/17 05:05:29;;;;;;;;;;;;;;;;;;6241474;22;19969;-89
2022/10/17 05:08:00;;;;;;;;;;;;;;;;;;6293532;22;19918;-90
2022/10/17 05:10:26;;;;;;;;;;;;;;;;;;6268844;22;19994;-90
2022/10/17 05:12:53;;;;;;;;;;;;;;;;;;6242682;22;19919;-90
2022/10/17 05:15:34;;;;;;;;;;;;;;;;;;6228637;23;19946;-89
2022/10/17 05:18:02;;;;;;;;;;;;;;;;;;6200151;23;20249;-90
2022/10/17 05:20:29;;;;;;;;;;;;;;;;;;6198618;23;19919;-89
2022/10/17 05:22:55;;;;;;;;;;;;;;;;;;6201584;22;19969;-90
2022/10/17 05:25:21;;;;;;;;;;;;;;;;;;6227726;22;20667;-89
2022/10/17 05:27:56;;;;;;;;;;;;;;;;;;6225446;22;20101;-90
2022/10/17 05:30:22;;;;;;;;;;;;;;;;;;6229251;22;20089;-90
2022/10/17 05:32:49;;;;;;;;;;;;;;;;;;6205595;22;20344;-89
2022/10/17 05:35:15;;;;;;;;;;;;;;;;;;6194145;23;19931;-89
2022/10/17 05:37:42;;;;;;;;;;;;;;;;;;6168037;23;20032;-89
2022/10/17 05:40:14;;;;;;;;;;;;;;;;;;6164982;23;19916;-89
2022/10/17 05:42:41;;;;;;;;;;;;;;;;;;6170168;23;20431;-89
2022/10/17 05:45:09;;;;;;;;;;;;;;;;;;6192960;23;19920;-89
2022/10/17 05:47:36;;;;;;;;;;;;;;;;;;6220667;23;20348;-89
2022/10/17 05:50:03;;;;;;;;;;;;;;;;;;6171265;23;19939;-90
2022/10/17 05:52:30;;;;;;;;;;;;;;;;;;6175329;23;20446;-90
2022/10/17 05:54:57;;;;;;;;;;;;;;;;;;6173791;23;20292;-90
2022/10/17 05:57:25;;;;;;;;;;;;;;;;;;6201826;23;19931;-89
2022/10/17 05:59:51;;;;;;;;;;;;;;;;;;6199039;23;19977;-89
2022/10/17 06:02:18;;;;;;;;;;;;;;;;;;6194516;23;19928;-89
2022/10/17 06:04:49;;;;;;;;;;;;;;;;;;6200288;23;20353;-90
2022/10/17 06:07:16;;;;;;;;;;;;;;;;;;6256086;22;20624;-89
2022/10/17 06:09:45;;;;;;;;;;;;;;;;;;6266847;22;19933;-89
2022/10/17 06:12:12;;;;;;;;;;;;;;;;;;6268688;22;19918;-89
2022/10/17 06:14:48;;;;;;;;;;;;;;;;;;6295220;22;19952;-90
2022/10/17 06:17:16;;;;;;;;;;;;;;;;;;6288202;22;19922;-89
2022/10/17 06:19:43;;;;;;;;;;;;;;;;;;6268517;22;20354;-89
2022/10/17 06:22:14;;;;;;;;;;;;;;;;;;6263575;22;20076;-89
2022/10/17 06:24:41;;;;;;;;;;;;;;;;;;6262031;22;20343;-90
2022/10/17 06:27:15;;;;;;;;;;;;;;;;;;6289644;22;20315;-90
2022/10/17 06:29:42;;;;;;;;;;;;;;;;;;6262227;22;19922;-90
2022/10/17 06:32:18;;;;;;;;;;;;;;;;;;6257752;22;19919;-89
2022/10/17 06:34:51;;;;;;;;;;;;;;;;;;6264660;22;19924;-89
2022/10/17 06:37:21;;;;;;;;;;;;;;;;;;6287722;22;19927;-88
2022/10/17 06:39:48;;;;;;;;;;;;;;;;;;6262145;22;19942;-88
2022/10/17 06:42:14;;;;;;;;;;;;;;;;;;6284937;22;20223;-89
2022/10/17 06:44:40;;;;;;;;;;;;;;;;;;6264579;22;19918;-89
2022/10/17 06:47:12;;;;;;;;;;;;;;;;;;6287091;22;19969;-88
2022/10/17 06:49:43;;;;;;;;;;;;;;;;;;6261634;22;19918;-88
2022/10/17 06:52:10;;;;;;;;;;;;;;;;;;6259012;22;19919;-88
2022/10/17 06:54:37;;;;;;;;;;;;;;;;;;6289343;22;20287;-88
2022/10/17 06:57:05;;;;;;;;;;;;;;;;;;6260589;22;19927;-88
2022/10/17 06:59:31;;;;;;;;;;;;;;;;;;6284898;22;20329;-88
2022/10/17 07:02:05;;;;;;;;;;;;;;;;;;6283767;22;19919;-89
2022/10/17 07:04:46;;;;;;;;;;;;;;;;;;6289676;22;19945;-89
2022/10/17 07:07:38;;;;;;;;;;;;;;;;;;6282328;22;20337;-88
2022/10/17 07:10:08;;;;;;;;;;;;;;;;;;6283989;22;20004;-88
2022/10/17 07:12:34;;;;;;;;;;;;;;;;;;6285760;22;19919;-89
2022/10/17 07:15:02;;;;;;;;;;;;;;;;;;6258126;22;20034;-88
2022/10/17 07:17:33;;;;;;;;;;;;;;;;;;6260623;22;19924;-88
2022/10/17 07:20:10;;;;;;;;;;;;;;;;;;6259033;22;20157;-89
2022/10/17 07:22:56;;;;;;;;;;;;;;;;;;6288677;22;19922;-89
2022/10/17 07:25:27;;;;;;;;;;;;;;;;;;6287707;22;20372;-89
2022/10/17 07:28:18;;;;;;;;;;;;;;;;;;6289106;22;19920;-89
2022/10/17 07:31:02;;;;;;;;;;;;;;;;;;6266229;22;19964;-90
2022/10/17 07:33:29;;;;;;;;;;;;;;;;;;6288836;22;19919;-89
2022/10/17 07:35:59;;;;;;;;;;;;;;;;;;6257701;22;19919;-89
2022/10/17 07:38:26;;;;;;;;;;;;;;;;;;6264267;22;19914;-89
2022/10/17 07:40:58;;;;;;;;;;;;;;;;;;6284430;22;20098;-89
2022/10/17 07:43:28;;;;;;;;;;;;;;;;;;6251512;22;19919;-89
2022/10/17 07:45:54;;;;;;;;;;;;;;;;;;6258781;22;19990;-90
2022/10/17 07:48:35;;;;;;;;;;;;;;;;;;6222270;23;20367;-89
2022/10/17 07:51:03;;;;;;;;;;;;;;;;;;6192551;23;19920;-89
2022/10/17 07:53:42;;;;;;;;;;;;;;;;;;6161228;23;19920;-89
2022/10/17 07:56:17;;;;;;;;;;;;;;;;;;6155415;23;19926;-89
2022/10/17 07:58:57;;;;;;;;;;;;;;;;;;6162718;23;19978;-88
2022/10/17 08:01:27;;;;;;;;;;;;;;;;;;6165321;23;19931;-89
2022/10/17 08:03:58;;;;;;;;;;;;;;;;;;6136011;23;19920;-89
2022/10/17 08:06:29;;;;;;;;;;;;;;;;;;6160865;23;19964;-89
2022/10/17 08:08:56;;;;;;;;;;;;;;;;;;6161580;23;19932;-89
2022/10/17 08:11:42;;;;;;;;;;;;;;;;;;6161818;23;19998;-89
2022/10/17 08:14:22;;;;;;;;;;;;;;;;;;6162630;23;20083;-89
2022/10/17 08:16:48;;;;;;;;;;;;;;;;;;6162626;23;19963;-89
2022/10/17 08:19:18;;;;;;;;;;;;;;;;;;6155817;23;19965;-89
2022/10/17 08:21:54;;;;;;;;;;;;;;;;;;6221070;22;19934;-90
2022/10/17 08:24:23;;;;;;;;;;;;;;;;;;6191965;22;20429;-90
2022/10/17 08:27:07;;;;;;;;;;;;;;;;;;;;;
2022/10/17 08:29:47;;;;;;;;;;;;;;;;;;6229358;22;19923;-90
2022/10/17 08:32:24;;;;;;;;;;;;;;;;;;6230086;22;19986;-90
2022/10/17 08:35:02;;;;;;;;;;;;;;;;;;6226415;22;20280;-91
2022/10/17 08:40:26;;;;;;;;;;;;;;;;;;6226651;22;19919;-90
2022/10/17 08:42:54;;;;;;;;;;;;;;;;;;6161777;23;19991;-90
2022/10/17 08:45:38;;;;;;;;;;;;;;;;;;6175252;23;20331;-90
2022/10/17 08:48:17;;;;;;;;;;;;;;;;;;6130399;23;19950;-90
2022/10/17 08:51:01;;;;;;;;;;;;;;;;;;6110851;23;19948;-90
2022/10/17 08:53:29;;;;;;;;;;;;;;;;;;6108131;23;19927;-90
2022/10/17 08:55:58;;;;;;;;;;;;;;;;;;6099848;23;20091;-90
2022/10/17 08:58:25;;;;;;;;;;;;;;;;;;6051374;23;20000;-90
2022/10/17 09:00:56;;;;;;;;;;;;;;;;;;6101299;23;20036;-90
2022/10/17 09:03:25;;;;;;;;;;;;;;;;;;6009486;23;19996;-90
2022/10/17 09:05:52;;;;;;;;;;;;;;;;;;5963028;23;19957;-89
2022/10/17 09:08:18;;;;;;;;;;;;;;;;;;5967865;23;19925;-89
2022/10/17 09:10:57;;;;;;;;;;;;;;;;;;5971366;23;19953;-89
2022/10/17 09:13:28;;;;;;;;;;;;;;;;;;5993343;23;19922;-91
2022/10/17 09:16:07;;;;;;;;;;;;;;;;;;6015232;23;20060;-90
2022/10/17 09:18:34;;;;;;;;;;;;;;;;;;5995213;23;20000;-90
2022/10/17 09:21:01;;;;;;;;;;;;;;;;;;5997411;23;19922;-90
2022/10/17 09:23:27;;;;;;;;;;;;;;;;;;6102177;23;20797;-89
2022/10/17 09:25:54;;;;;;;;;;;;;;;;;;6077730;23;19924;-90
2022/10/17 09:28:24;;;;;;;;;;;;;;;;;;6166295;23;20374;-90
2022/10/17 09:31:00;;;;;;;;;;;;;;;;;;;;;
2022/10/17 09:33:33;;;;;;;;;;;;;;;;;;6190747;23;19987;-90
2022/10/17 09:36:01;;;;;;;;;;;;;;;;;;6164117;23;19920;-90
2022/10/17 09:38:48;;;;;;;;;;;;;;;;;;;;;
2022/10/17 09:41:20;;;;;;;;;;;;;;;;;;6208710;23;20584;-90
2022/10/17 09:43:59;;;;;;;;;;;;;;;;;;;;;
2022/10/17 09:55:30;;;;;;;;;;;;;;;;;;6276659;22;20026;-85
2022/10/17 09:57:59;;;;;;;;;;;;;;;;;;6283686;22;19923;-85
2022/10/17 10:00:25;;;;;;;;;;;;;;;;;;6289807;22;19998;-86
2022/10/17 10:32:03;;;;;;;;;;;;;;;;;;6274506;22;20092;-92
2022/10/17 10:34:41;;;;;;;;;;;;;;;;;;6188462;23;19924;-90
2022/10/17 10:37:16;;;;;;;;;;;;;;;;;;6168819;23;19931;-89
2022/10/17 10:39:50;;;;;;;;;;;;;;;;;;6169681;23;19920;-92
2022/10/17 10:42:44;;;;;;;;;;;;;;;;;;6201840;23;20088;-91
2022/10/17 10:45:13;;;;;;;;;;;;;;;;;;6133661;23;19927;-91
2022/10/17 10:48:06;;;;;;;;;;;;;;;;;;6144625;23;19927;-89
2022/10/17 10:50:46;;;;;;;;;;;;;;;;;;6137759;23;19920;-92
2022/10/17 10:53:29;;;;;;;;;;;;;;;;;;;;;
2022/10/17 10:59:18;;;;;;;;;;;;;;;;;;6202658;23;19930;-92
2022/10/17 11:02:15;;;;;;;;;;;;;;;;;;;;;
2022/10/17 11:04:57;;;;;;;;;;;;;;;;;;;;;
2022/10/17 11:07:35;;;;;;;;;;;;;;;;;;;;;
2022/10/17 11:10:17;;;;;;;;;;;;;;;;;;6142740;23;20655;-91
2022/10/17 11:12:49;;;;;;;;;;;;;;;;;;6142826;23;20261;-91
2022/10/17 11:15:34;;;;;;;;;;;;;;;;;;;;;
2022/10/17 11:18:05;;;;;;;;;;;;;;;;;;6163642;23;19970;-90
2022/10/17 11:20:34;;;;;;;;;;;;;;;;;;6167255;23;19926;-90
2022/10/17 11:23:08;;;;;;;;;;;;;;;;;;6155057;23;19931;-90
2022/10/17 11:25:40;;;;;;;;;;;;;;;;;;6082914;23;19926;-91
2022/10/17 11:28:30;;;;;;;;;;;;;;;;;;6085554;23;19927;-90
2022/10/17 11:31:00;;;;;;;;;;;;;;;;;;6108513;23;20374;-91
2022/10/17 11:33:41;;;;;;;;;;;;;;;;;;6087529;23;19927;-91
2022/10/17 11:36:10;;;;;;;;;;;;;;;;;;6107035;23;19944;-90
2022/10/17 11:38:45;;;;;;;;;;;;;;;;;;6109698;23;19917;-91
2022/10/17 11:41:23;;;;;;;;;;;;;;;;;;6113255;23;20357;-92
2022/10/17 11:44:08;;;;;;;;;;;;;;;;;;;;;
2022/10/17 11:46:34;;;;;;;;;;;;;;;;;;6138833;23;20549;-92
2022/10/17 11:49:01;;;;;;;;;;;;;;;;;;6139344;23;20353;-92
2022/10/17 11:51:38;;;;;;;;;;;;;;;;;;6140918;23;19987;-93
2022/10/17 11:54:13;;;;;;;;;;;;;;;;;;6140080;23;19979;-92
2022/10/17 11:56:49;;;;;;;;;;;;;;;;;;6142164;23;19920;-90
2022/10/17 11:59:26;;;;;;;;;;;;;;;;;;6145301;22;19924;-90
2022/10/17 12:01:58;;;;;;;;;;;;;;;;;;6205837;22;19969;-92
2022/10/17 12:04:29;;;;;;;;;;;;;;;;;;6210503;22;19919;-91
2022/10/17 12:09:55;;;;;;;;;;;;;;;;;;6212402;22;20004;-91
2022/10/17 12:12:46;;;;;;;;;;;;;;;;;;;;;
2022/10/17 12:15:15;;;;;;;;;;;;;;;;;;6230655;22;20366;-90
2022/10/17 12:17:41;;;;;;;;;;;;;;;;;;6204385;22;19961;-91
2022/10/17 12:20:13;;;;;;;;;;;;;;;;;;6135978;23;19971;-91
2022/10/17 12:22:58;;;;;;;;;;;;;;;;;;;;;
2022/10/17 12:25:40;;;;;;;;;;;;;;;;;;;;;
2022/10/17 12:28:14;;;;;;;;;;;;;;;;;;6135513;23;19974;-92
2022/10/17 12:30:45;;;;;;;;;;;;;;;;;;6112843;23;19958;-91
2022/10/17 12:33:22;;;;;;;;;;;;;;;;;;;;;
2022/10/17 12:36:07;;;;;;;;;;;;;;;;;;6163544;23;19919;-90
2022/10/17 12:38:42;;;;;;;;;;;;;;;;;;6167200;23;19923;-91
2022/10/17 12:41:13;;;;;;;;;;;;;;;;;;6139647;23;20238;-91
2022/10/17 12:43:44;;;;;;;;;;;;;;;;;;6135689;23;19924;-91
2022/10/17 12:46:10;;;;;;;;;;;;;;;;;;6140075;23;20478;-90
2022/10/17 12:48:39;;;;;;;;;;;;;;;;;;6145835;23;19954;-90
2022/10/17 12:51:13;;;;;;;;;;;;;;;;;;6184431;22;20671;-89
2022/10/17 12:53:42;;;;;;;;;;;;;;;;;;6235005;22;19925;-91
2022/10/17 12:56:15;;;;;;;;;;;;;;;;;;6207122;22;19926;-91
2022/10/17 12:58:47;;;;;;;;;;;;;;;;;;6235647;22;19926;-90
2022/10/17 13:01:13;;;;;;;;;;;;;;;;;;6231659;22;20339;-90
2022/10/17 13:03:51;;;;;;;;;;;;;;;;;;6231755;22;19919;-91
2022/10/17 13:06:36;;;;;;;;;;;;;;;;;;6277272;22;19970;-91
2022/10/17 13:09:10;;;;;;;;;;;;;;;;;;6232378;22;19987;-91
2022/10/17 13:11:39;;;;;;;;;;;;;;;;;;6259430;22;20070;-91
2022/10/17 13:14:14;;;;;;;;;;;;;;;;;;6259660;22;19985;-91
2022/10/17 13:16:56;;;;;;;;;;;;;;;;;;;;;
2022/10/17 13:19:22;;;;;;;;;;;;;;;;;;6259094;22;19947;-92
2022/10/17 13:21:48;;;;;;;;;;;;;;;;;;6231116;22;19919;-91
2022/10/17 13:24:23;;;;;;;;;;;;;;;;;;6229402;22;20441;-91
2022/10/17 13:26:55;;;;;;;;;;;;;;;;;;6238294;22;19919;-92
2022/10/17 13:29:27;;;;;;;;;;;;;;;;;;6237648;22;19930;-91
2022/10/17 13:31:59;;;;;;;;;;;;;;;;;;6232356;22;19980;-91
2022/10/17 13:34:32;;;;;;;;;;;;;;;;;;6232501;22;19998;-91
2022/10/17 13:37:19;;;;;;;;;;;;;;;;;;6231644;22;19977;-92
2022/10/17 13:39:48;;;;;;;;;;;;;;;;;;6236655;22;20244;-91
2022/10/17 13:42:19;;;;;;;;;;;;;;;;;;6228545;22;19919;-91
2022/10/17 13:44:48;;;;;;;;;;;;;;;;;;6234425;22;20614;-91
2022/10/17 13:50:13;;;;;;;;;;;;;;;;;;;;;
2022/10/17 13:55:37;;;;;;;;;;;;;;;;;;6251824;22;20002;-91
2022/10/17 13:58:09;;;;;;;;;;;;;;;;;;6232876;22;19922;-90
2022/10/17 14:00:35;;;;;;;;;;;;;;;;;;6238789;22;20388;-91
2022/10/17 14:03:01;;;;;;;;;;;;;;;;;;6235679;22;19923;-90
2022/10/17 14:05:39;;;;;;;;;;;;;;;;;;6237710;22;19926;-91
2022/10/17 14:08:15;;;;;;;;;;;;;;;;;;6233403;22;19966;-91
2022/10/17 14:10:41;;;;;;;;;;;;;;;;;;6237550;22;20298;-91
2022/10/17 14:13:13;;;;;;;;;;;;;;;;;;6235302;22;19926;-92
2022/10/17 14:15:41;;;;;;;;;;;;;;;;;;6235875;22;20383;-90
2022/10/17 14:18:10;;;;;;;;;;;;;;;;;;6235443;22;20353;-91
2022/10/17 14:20:54;;;;;;;;;;;;;;;;;;6235526;22;20397;-91
2022/10/17 14:23:20;;;;;;;;;;;;;;;;;;6231890;22;20017;-92
2022/10/17 14:25:59;;;;;;;;;;;;;;;;;;6294671;22;19962;-91
2022/10/17 14:28:27;;;;;;;;;;;;;;;;;;6234238;22;19918;-91
2022/10/17 14:31:07;;;;;;;;;;;;;;;;;;6236225;22;20331;-92
2022/10/17 14:33:33;;;;;;;;;;;;;;;;;;6263269;22;20350;-91
2022/10/17 14:36:06;;;;;;;;;;;;;;;;;;6232714;22;20344;-91
2022/10/17 14:38:35;;;;;;;;;;;;;;;;;;6234458;22;19923;-93
2022/10/17 14:41:17;;;;;;;;;;;;;;;;;;6260247;22;19925;-91
2022/10/17 14:43:49;;;;;;;;;;;;;;;;;;6235554;22;19926;-90
2022/10/17 14:46:30;;;;;;;;;;;;;;;;;;6238851;22;19914;-93
2022/10/17 14:49:08;;;;;;;;;;;;;;;;;;6235900;22;20284;-91
2022/10/17 14:51:39;;;;;;;;;;;;;;;;;;6237807;22;19914;-91
2022/10/17 14:54:13;;;;;;;;;;;;;;;;;;6231882;22;19925;-91
2022/10/17 14:56:59;;;;;;;;;;;;;;;;;;6233274;22;20231;-92
2022/10/17 14:59:28;;;;;;;;;;;;;;;;;;6237954;22;20170;-91
2022/10/17 15:01:57;;;;;;;;;;;;;;;;;;6234118;22;19918;-92
2022/10/17 15:04:47;;;;;;;;;;;;;;;;;;6235540;22;20093;-90
2022/10/17 15:07:15;;;;;;;;;;;;;;;;;;6253322;22;20328;-92
2022/10/17 15:09:53;;;;;;;;;;;;;;;;;;6237130;22;20406;-90
2022/10/17 15:12:34;;;;;;;;;;;;;;;;;;6236494;22;20357;-91
2022/10/17 15:15:02;;;;;;;;;;;;;;;;;;6237194;22;19968;-90
2022/10/17 15:17:34;;;;;;;;;;;;;;;;;;6235914;22;19915;-91
2022/10/17 15:20:25;;;;;;;;;;;;;;;;;;6259472;22;19927;-91
2022/10/17 15:22:53;;;;;;;;;;;;;;;;;;6263822;22;20331;-90
2022/10/17 15:25:19;;;;;;;;;;;;;;;;;;6233496;22;19964;-91
2022/10/17 15:28:03;;;;;;;;;;;;;;;;;;6253569;22;19997;-91
2022/10/17 15:30:39;;;;;;;;;;;;;;;;;;;;;
2022/10/17 15:33:11;;;;;;;;;;;;;;;;;;6261381;22;20220;-92
2022/10/17 15:35:46;;;;;;;;;;;;;;;;;;6238973;22;19930;-91
2022/10/17 15:38:24;;;;;;;;;;;;;;;;;;6242711;22;19923;-92
2022/10/17 15:41:00;;;;;;;;;;;;;;;;;;6236058;22;19918;-91
2022/10/17 15:43:32;;;;;;;;;;;;;;;;;;6228013;22;20026;-91
2022/10/17 15:46:01;;;;;;;;;;;;;;;;;;6228652;22;19976;-90
2022/10/17 15:48:33;;;;;;;;;;;;;;;;;;6232651;22;20411;-92
2022/10/17 15:51:16;;;;;;;;;;;;;;;;;;6224461;22;19990;-91
2022/10/17 15:53:48;;;;;;;;;;;;;;;;;;6236048;22;20476;-92
2022/10/17 15:56:20;;;;;;;;;;;;;;;;;;6232770;22;19923;-92
2022/10/17 15:58:48;;;;;;;;;;;;;;;;;;6238358;22;20021;-92
2022/10/17 16:01:17;;;;;;;;;;;;;;;;;;6206814;22;20346;-90
2022/10/17 16:03:48;;;;;;;;;;;;;;;;;;6234722;22;20407;-92
2022/10/17 16:06:17;;;;;;;;;;;;;;;;;;6233642;22;20275;-92
2022/10/17 16:08:46;;;;;;;;;;;;;;;;;;6234315;22;19919;-91
2022/10/17 16:14:16;;;;;;;;;;;;;;;;;;6261032;22;19989;-90
2022/10/17 16:16:54;;;;;;;;;;;;;;;;;;6237057;22;19981;-92
2022/10/17 16:19:33;;;;;;;;;;;;;;;;;;;;;
2022/10/17 16:22:05;;;;;;;;;;;;;;;;;;6257151;22;19925;-90
2022/10/17 16:24:57;;;;;;;;;;;;;;;;;;6251595;22;20248;-92
2022/10/17 16:27:26;;;;;;;;;;;;;;;;;;6203579;22;19915;-92
2022/10/17 16:29:54;;;;;;;;;;;;;;;;;;6203386;22;19998;-91
2022/10/17 16:32:41;;;;;;;;;;;;;;;;;;6231940;22;19925;-91
2022/10/17 16:35:31;;;;;;;;;;;;;;;;;;6200091;22;20002;-91
2022/10/17 16:38:02;;;;;;;;;;;;;;;;;;6219738;23;19930;-92
2022/10/17 16:40:31;;;;;;;;;;;;;;;;;;6173479;23;20252;-91
2022/10/17 16:43:05;;;;;;;;;;;;;;;;;;6195950;23;19919;-92
2022/10/17 16:45:48;;;;;;;;;;;;;;;;;;6194917;23;19920;-91
2022/10/17 16:48:20;;;;;;;;;;;;;;;;;;6175039;22;20370;-91
2022/10/17 16:50:52;;;;;;;;;;;;;;;;;;6201177;22;19950;-90
2022/10/17 16:53:40;;;;;;;;;;;;;;;;;;;;;
2022/10/17 16:56:09;;;;;;;;;;;;;;;;;;6232614;22;19930;-91
2022/10/17 16:58:46;;;;;;;;;;;;;;;;;;6200876;22;19974;-90
2022/10/17 17:01:30;;;;;;;;;;;;;;;;;;6201729;22;20451;-92
2022/10/17 17:04:07;;;;;;;;;;;;;;;;;;6224868;22;20358;-91
2022/10/17 17:06:33;;;;;;;;;;;;;;;;;;6203619;22;19998;-92
2022/10/17 17:09:24;;;;;;;;;;;;;;;;;;6229241;22;20340;-89
2022/10/17 17:11:57;;;;;;;;;;;;;;;;;;6178393;22;20405;-92
2022/10/17 17:14:34;;;;;;;;;;;;;;;;;;6201680;22;19919;-90
2022/10/17 17:17:08;;;;;;;;;;;;;;;;;;6198150;22;19930;-90
2022/10/17 17:19:34;;;;;;;;;;;;;;;;;;6226238;22;20244;-90
2022/10/17 17:22:03;;;;;;;;;;;;;;;;;;6196099;22;19920;-90
2022/10/17 17:24:32;;;;;;;;;;;;;;;;;;6196545;22;20238;-91
2022/10/17 17:27:09;;;;;;;;;;;;;;;;;;6199995;22;20350;-91
2022/10/17 17:29:36;;;;;;;;;;;;;;;;;;6202805;22;20415;-91
2022/10/17 17:32:02;;;;;;;;;;;;;;;;;;6225695;22;19919;-91
2022/10/17 17:34:31;;;;;;;;;;;;;;;;;;6203009;22;19982;-91
2022/10/17 17:37:13;;;;;;;;;;;;;;;;;;;;;
2022/10/17 17:39:42;;;;;;;;;;;;;;;;;;6258529;22;19941;-91
2022/10/17 17:42:08;;;;;;;;;;;;;;;;;;6228363;22;20095;-91
2022/10/17 17:44:37;;;;;;;;;;;;;;;;;;6229836;22;19922;-88
2022/10/17 17:47:05;;;;;;;;;;;;;;;;;;6261220;22;20502;-90
2022/10/17 17:49:31;;;;;;;;;;;;;;;;;;6233411;22;19925;-91
2022/10/17 17:52:00;;;;;;;;;;;;;;;;;;6229860;22;19968;-90
2022/10/17 17:54:26;;;;;;;;;;;;;;;;;;6233192;22;19926;-90
2022/10/17 17:56:55;;;;;;;;;;;;;;;;;;6236922;22;19930;-89
2022/10/17 17:59:36;;;;;;;;;;;;;;;;;;6238326;22;20004;-96
2022/10/17 18:02:08;;;;;;;;;;;;;;;;;;6234300;22;19919;-89
2022/10/17 18:04:34;;;;;;;;;;;;;;;;;;6236423;22;19923;-89
2022/10/17 18:07:00;;;;;;;;;;;;;;;;;;6238998;22;19965;-90
2022/10/17 18:09:26;;;;;;;;;;;;;;;;;;6238709;22;19925;-90
2022/10/17 18:12:02;;;;;;;;;;;;;;;;;;6236856;22;20346;-90
2022/10/17 18:14:37;;;;;;;;;;;;;;;;;;6232453;22;19918;-96
2022/10/17 18:17:06;;;;;;;;;;;;;;;;;;6235943;22;20315;-90
2022/10/17 18:19:35;;;;;;;;;;;;;;;;;;6238020;22;19930;-88
2022/10/17 18:22:01;;;;;;;;;;;;;;;;;;6237340;22;19993;-90
2022/10/17 18:24:27;;;;;;;;;;;;;;;;;;6239231;22;19958;-91
2022/10/17 18:27:07;;;;;;;;;;;;;;;;;;6263995;22;19918;-91
2022/10/17 18:29:33;;;;;;;;;;;;;;;;;;6236080;22;19919;-90